createdAt,value
2022-07-29T00:04:09.079Z,5.6
2022-07-29T00:10:01.147Z,6.1
2022-07-29T00:15:52.158Z,4.4
2022-07-29T00:21:44.392Z,5.6
2022-07-29T00:27:33.160Z,5.1
2022-07-29T00:33:23.232Z,6.2
2022-07-29T00:39:16.512Z,6.9
2022-07-29T00:45:08.027Z,6.7
2022-07-29T00:51:00.033Z,7.9
2022-07-29T00:56:51.428Z,5.5
2022-07-29T01:02:42.431Z,8.1
2022-07-29T01:08:35.805Z,6.2
2022-07-29T01:14:28.204Z,6.1
2022-07-29T01:20:20.218Z,6
2022-07-29T01:26:20.350Z,7.4
2022-07-29T01:32:31.462Z,5.3
2022-07-29T01:38:22.550Z,8.6
2022-07-29T01:44:17.191Z,6.4
2022-07-29T01:50:11.101Z,4.7
2022-07-29T01:56:04.410Z,8.2
2022-07-29T02:01:59.549Z,4.8
2022-07-29T02:07:48.992Z,7.6
2022-07-29T02:13:41.194Z,7.3
2022-07-29T02:19:33.929Z,6.8
2022-07-29T02:25:39.123Z,6.3
2022-07-29T02:31:32.189Z,7.3
2022-07-29T02:37:23.594Z,7.2
2022-07-29T02:43:15.267Z,7
2022-07-29T02:49:06.972Z,6.9
2022-07-29T02:54:59.503Z,9.2
2022-07-29T03:00:52.899Z,8
2022-07-29T03:06:45.454Z,5.9
2022-07-29T03:12:36.826Z,5.9
2022-07-29T03:18:29.038Z,6.2
2022-07-29T03:24:20.870Z,5.1
2022-07-29T03:30:22.061Z,6.3
2022-07-29T03:36:12.550Z,6.5
2022-07-29T03:42:03.281Z,7.2
2022-07-29T03:48:10.907Z,9.6
2022-07-29T03:54:06.325Z,6.7
2022-07-29T04:00:00.307Z,5.6
2022-07-29T04:05:56.571Z,8
2022-07-29T04:12:09.860Z,6
2022-07-29T04:17:59.063Z,9
2022-07-29T04:23:57.974Z,6
2022-07-29T04:30:02.354Z,5.7
2022-07-29T04:35:59.109Z,7.9
2022-07-29T04:41:52.434Z,8.5
2022-07-29T04:47:49.326Z,7.4
2022-07-29T04:53:44.080Z,6.1
2022-07-29T04:59:38.766Z,8
2022-07-29T05:05:32.555Z,7.2
2022-07-29T05:11:33.602Z,8.6
2022-07-29T05:17:24.682Z,8.3
2022-07-29T05:23:14.380Z,8.8
2022-07-29T05:29:07.368Z,5.9
2022-07-29T05:35:32.579Z,7.4
2022-07-29T05:41:21.468Z,9.4
2022-07-29T05:47:11.108Z,8
2022-07-29T05:53:20.925Z,9.4
2022-07-29T05:59:24.948Z,9.5
2022-07-29T06:05:22.167Z,9.8
2022-07-29T06:11:13.533Z,11.8
2022-07-29T06:17:06.548Z,10.3
2022-07-29T06:24:08.013Z,8.9
2022-07-29T06:29:57.034Z,10.4
2022-07-29T06:35:58.509Z,10.8
2022-07-29T06:41:50.951Z,11
2022-07-29T06:47:43.253Z,12.7
2022-07-29T06:53:34.982Z,10.4
2022-07-29T06:59:39.895Z,9.5
2022-07-29T07:05:32.392Z,10.1
2022-07-29T07:11:23.037Z,8.9
2022-07-29T07:17:14.484Z,9.4
2022-07-29T07:23:05.381Z,8.6
2022-07-29T07:28:54.612Z,13.2
2022-07-29T07:34:45.060Z,11.6
2022-07-29T07:40:35.270Z,11.2
2022-07-29T07:46:26.994Z,10
2022-07-29T07:52:19.070Z,10.4
2022-07-29T07:58:11.880Z,10.8
2022-07-29T08:04:09.188Z,9.6
2022-07-29T08:10:08.833Z,10
2022-07-29T08:16:03.099Z,12.8
2022-07-29T08:21:55.120Z,12
2022-07-29T08:27:49.600Z,10.2
2022-07-29T08:33:42.905Z,10.4
2022-07-29T08:39:35.038Z,9.5
2022-07-29T08:45:29.006Z,10.6
2022-07-29T08:51:19.734Z,8.1
2022-07-29T08:57:10.929Z,7.5
2022-07-29T09:03:12.543Z,7.8
2022-07-29T09:09:03.257Z,6.5
2022-07-29T09:14:56.656Z,7.4
2022-07-29T09:20:50.561Z,5
2022-07-29T09:26:42.306Z,6.2
2022-07-29T09:32:33.673Z,6.9
2022-07-29T09:38:25.689Z,7.6
2022-07-29T09:44:17.889Z,6.1
2022-07-29T09:50:10.275Z,7.9
2022-07-29T09:56:05.707Z,7.7
2022-07-29T10:01:59.660Z,7.9
2022-07-29T10:08:05.073Z,6.2
2022-07-29T10:13:58.919Z,8.3
2022-07-29T10:19:52.187Z,8.2
2022-07-29T10:25:52.873Z,8.2
2022-07-29T10:31:47.510Z,4.5
2022-07-29T10:37:49.482Z,7.6
2022-07-29T10:43:45.891Z,6.6
2022-07-29T10:49:47.440Z,7.8
2022-07-29T10:55:45.017Z,7.8
2022-07-29T11:02:35.718Z,7.1
2022-07-29T11:08:31.986Z,8.8
2022-07-29T12:07:08.438Z,7.4
2022-07-29T12:13:00.541Z,10
2022-07-29T12:18:49.660Z,11.5
2022-07-29T12:24:47.769Z,9.5
2022-07-29T12:30:40.032Z,8.6
2022-07-29T12:36:34.010Z,10.3
2022-07-29T12:42:29.463Z,9.1
2022-07-29T12:48:22.110Z,12
2022-07-29T12:54:13.403Z,8.1
2022-07-29T13:00:04.530Z,8.7
2022-07-29T13:05:55.745Z,8.1
2022-07-29T13:11:52.921Z,8.9
2022-07-29T13:17:51.069Z,8.4
2022-07-29T13:23:43.274Z,10.7
2022-07-29T13:29:37.404Z,7.2
2022-07-29T13:35:34.574Z,6.3
2022-07-29T13:41:30.686Z,6.6
2022-07-29T13:47:22.049Z,7.5
2022-07-29T13:53:30.100Z,6.3
2022-07-29T13:59:20.325Z,8.6
2022-07-29T14:05:14.306Z,8.7
2022-07-29T14:11:05.182Z,7.8
2022-07-29T14:16:57.447Z,10
2022-07-29T14:22:50.027Z,7.5
2022-07-29T14:28:46.374Z,7
2022-07-29T14:34:36.714Z,7.1
2022-07-29T14:40:27.086Z,11.5
2022-07-29T14:46:18.156Z,6.1
2022-07-29T14:52:10.009Z,8.4
2022-07-29T14:58:18.238Z,7.1
2022-07-29T15:04:07.375Z,8.9
2022-07-29T15:10:04.776Z,7.3
2022-07-29T15:16:04.654Z,9.1
2022-07-29T15:21:59.208Z,6.3
2022-07-29T15:28:04.741Z,7.4
2022-07-29T15:33:58.753Z,7.2
2022-07-29T15:40:02.075Z,9.2
2022-07-29T15:45:52.661Z,8.3
2022-07-29T15:51:44.971Z,8.3
2022-07-29T15:57:35.830Z,7.3
2022-07-29T16:03:28.065Z,8.3
2022-07-29T16:09:18.793Z,6.2
2022-07-29T16:15:14.507Z,8.4
2022-07-29T16:21:04.867Z,8.8
2022-07-29T16:26:57.848Z,8.1
2022-07-29T16:32:49.326Z,9.4
2022-07-29T17:06:15.355Z,10.2
2022-07-29T17:19:36.162Z,8.2
2022-07-29T17:33:09.651Z,8.1
2022-07-29T17:59:55.757Z,7.2
2022-07-29T20:20:22.444Z,8.3
2022-07-29T20:26:18.039Z,10.8
2022-07-29T20:32:09.845Z,14.4
2022-07-29T20:38:35.182Z,11.3
2022-07-29T20:45:08.735Z,17.5
2022-07-29T20:50:58.504Z,18.1
2022-07-29T20:57:03.548Z,15.2
2022-07-29T21:03:29.306Z,17.6
2022-07-29T21:09:21.986Z,11.4
2022-07-29T21:15:13.111Z,10.6
2022-07-29T21:21:05.423Z,14
2022-07-29T21:27:28.813Z,11.4
2022-07-29T21:33:20.491Z,12.2
2022-07-29T21:39:12.310Z,16.9
2022-07-29T21:45:08.511Z,16.3
2022-07-29T21:51:09.473Z,10.1
2022-07-29T21:57:08.936Z,8.9
2022-07-29T22:03:01.623Z,8
2022-07-29T22:08:55.006Z,8.6
2022-07-29T22:14:50.645Z,8.7
2022-07-29T22:20:44.700Z,8.3
2022-07-29T22:26:35.774Z,9.1
2022-07-29T22:32:27.685Z,7.4
2022-07-29T22:38:18.833Z,6.4
2022-07-29T22:44:11.063Z,8
2022-07-29T22:50:03.066Z,9.4
2022-07-29T22:55:53.986Z,11
2022-07-29T23:01:53.151Z,10.1
2022-07-29T23:07:56.343Z,9.8
2022-07-29T23:13:47.762Z,7.2
2022-07-29T23:19:39.618Z,7.6
2022-07-29T23:25:34.382Z,9.3
2022-07-29T23:31:27.104Z,7.9
2022-07-29T23:37:20.223Z,7.5
2022-07-29T23:43:13.731Z,8.4
2022-07-29T23:49:03.861Z,8
2022-07-29T23:55:40.958Z,8.3
